createdAt,value
2022-08-25T00:01:34.233Z,445.96
2022-08-25T00:07:05.925Z,446.30
2022-08-25T00:12:37.872Z,446.30
2022-08-25T00:20:31.142Z,447.17
2022-08-25T00:26:02.647Z,447.26
2022-08-25T00:31:37.688Z,447.43
2022-08-25T00:37:06.462Z,447.61
2022-08-25T00:42:38.311Z,447.61
2022-08-25T00:48:10.283Z,447.96
2022-08-25T00:53:41.837Z,448.13
2022-08-25T00:59:13.784Z,448.30
2022-08-25T01:04:48.714Z,448.65
2022-08-25T01:10:17.429Z,448.83
2022-08-25T01:15:48.934Z,449.00
2022-08-25T01:21:20.406Z,449.17
2022-08-25T01:26:52.252Z,449.52
2022-08-25T01:32:24.041Z,449.69
2022-08-25T01:37:55.698Z,449.69
2022-08-25T01:43:27.126Z,449.69
2022-08-25T01:49:00.417Z,449.69
2022-08-25T01:54:30.859Z,449.87
2022-08-25T02:00:02.503Z,449.87
2022-08-25T02:05:34.524Z,450.04
2022-08-25T02:11:06.356Z,450.22
2022-08-25T02:16:38.224Z,450.22
2022-08-25T02:22:10.078Z,450.04
2022-08-25T02:27:41.792Z,450.22
2022-08-25T02:33:13.544Z,450.22
2022-08-25T02:38:45.395Z,450.39
2022-08-25T02:44:16.935Z,450.56
2022-08-25T02:49:48.311Z,450.39
2022-08-25T02:55:19.709Z,450.56
2022-08-25T03:00:51.756Z,450.56
2022-08-25T03:06:23.679Z,451.26
2022-08-25T03:11:54.801Z,451.09
2022-08-25T03:17:26.576Z,451.26
2022-08-25T03:22:58.530Z,451.26
2022-08-25T03:28:30.304Z,451.52
2022-08-25T03:34:02.068Z,451.35
2022-08-25T03:39:34.061Z,451.69
2022-08-25T03:45:05.795Z,451.87
2022-08-25T03:50:37.124Z,452.22
2022-08-25T03:56:08.726Z,452.56
2022-08-25T04:01:40.638Z,452.39
2022-08-25T04:12:43.990Z,452.56
2022-08-25T04:18:15.642Z,452.39
2022-08-25T04:23:47.226Z,452.04
2022-08-25T04:29:20.093Z,452.04
2022-08-25T04:34:51.856Z,451.87
2022-08-25T04:40:23.855Z,451.69
2022-08-25T04:45:55.193Z,452.04
2022-08-25T04:51:27.181Z,451.87
2022-08-25T04:56:59.047Z,452.22
2022-08-25T05:02:30.728Z,452.22
2022-08-25T05:08:02.693Z,452.22
2022-08-25T05:13:34.178Z,452.56
2022-08-25T05:19:06.055Z,452.74
2022-08-25T05:24:37.866Z,452.56
2022-08-25T05:30:09.603Z,453.09
2022-08-25T05:35:41.128Z,453.09
2022-08-25T05:41:12.709Z,453.43
2022-08-25T05:46:44.496Z,453.09
2022-08-25T05:52:18.215Z,452.91
2022-08-25T05:57:48.226Z,452.91
2022-08-25T06:03:19.906Z,452.91
2022-08-25T06:08:51.895Z,452.91
2022-08-25T06:14:23.785Z,453.61
2022-08-25T06:19:55.452Z,454.30
2022-08-25T06:25:27.356Z,454.83
2022-08-25T06:30:58.944Z,455.00
2022-08-25T06:36:30.907Z,455.17
2022-08-25T06:42:02.766Z,455.17
2022-08-25T06:47:34.657Z,455.17
2022-08-25T06:53:06.270Z,455.00
2022-08-25T06:58:37.766Z,455.00
2022-08-25T07:04:13.070Z,455.00
2022-08-25T07:09:41.387Z,455.17
2022-08-25T07:15:20.905Z,455.17
2022-08-25T07:20:44.722Z,455.35
2022-08-25T07:26:36.225Z,455.17
2022-08-25T07:31:48.607Z,455.17
2022-08-25T07:37:45.506Z,455.70
2022-08-25T07:42:52.133Z,455.78
2022-08-25T07:48:23.965Z,455.96
2022-08-25T07:53:55.676Z,455.96
2022-08-25T07:59:27.507Z,456.13
2022-08-25T08:04:59.443Z,455.78
2022-08-25T08:11:00.615Z,455.78
2022-08-25T08:16:03.129Z,455.70
2022-08-25T08:21:34.617Z,455.70
2022-08-25T08:27:06.335Z,455.70
2022-08-25T08:33:06.399Z,455.78
2022-08-25T08:38:16.159Z,456.13
2022-08-25T08:43:41.933Z,456.65
2022-08-25T08:49:13.971Z,456.83
2022-08-25T08:54:46.217Z,457.70
2022-08-25T09:00:18.001Z,457.52
2022-08-25T09:11:21.464Z,458.74
2022-08-25T09:16:53.389Z,459.26
2022-08-25T09:22:35.519Z,459.26
2022-08-25T09:27:57.071Z,459.26
2022-08-25T09:33:28.830Z,459.09
2022-08-25T09:39:00.473Z,459.26
2022-08-25T09:44:32.210Z,459.44
2022-08-25T09:50:04.628Z,459.61
2022-08-25T09:55:35.826Z,460.22
2022-08-25T10:01:07.561Z,460.13
2022-08-25T10:06:39.586Z,461.44
2022-08-25T10:12:11.430Z,461.79
2022-08-25T10:17:42.889Z,462.14
2022-08-25T10:23:14.875Z,462.66
2022-08-25T10:28:46.656Z,462.83
2022-08-25T10:34:18.549Z,463.53
2022-08-25T10:39:55.363Z,464.05
2022-08-25T10:45:22.174Z,464.23
2022-08-25T11:01:57.228Z,464.75
2022-08-25T11:07:31.530Z,465.36
2022-08-25T11:24:06.718Z,466.05
2022-08-25T11:29:39.450Z,466.58
2022-08-25T11:35:10.166Z,466.92
2022-08-25T11:40:41.721Z,467.45
2022-08-25T11:46:14.000Z,467.97
2022-08-25T11:51:45.454Z,468.49
2022-08-25T11:57:17.703Z,468.67
2022-08-25T12:13:53.544Z,468.93
2022-08-25T12:19:25.418Z,469.28
2022-08-25T12:24:57.207Z,469.10
2022-08-25T12:30:28.737Z,469.10
2022-08-25T12:36:00.475Z,468.93
2022-08-25T12:41:33.671Z,469.28
2022-08-25T12:47:05.981Z,469.62
2022-08-25T12:52:37.754Z,469.80
2022-08-25T12:58:10.720Z,470.32
2022-08-25T13:00:33.629Z,470.84
2022-08-25T13:06:05.406Z,470.84
2022-08-25T13:11:37.352Z,471.37
2022-08-25T13:17:09.683Z,471.72
2022-08-25T13:22:40.660Z,472.06
2022-08-25T13:28:12.464Z,472.24
2022-08-25T13:33:44.353Z,472.76
2022-08-25T13:39:17.041Z,472.94
2022-08-25T13:50:20.725Z,473.37
2022-08-25T13:55:53.381Z,473.89
2022-08-25T14:01:48.994Z,473.89
2022-08-25T14:06:56.894Z,473.89
2022-08-25T14:18:00.795Z,474.94
2022-08-25T14:23:32.917Z,474.77
2022-08-25T14:29:04.475Z,475.11
2022-08-25T14:34:36.494Z,475.46
2022-08-25T14:40:08.254Z,475.64
2022-08-25T14:45:40.090Z,475.64
2022-08-25T14:51:11.384Z,475.64
2022-08-25T14:56:43.098Z,475.81
2022-08-25T15:02:14.763Z,476.51
2022-08-25T15:07:46.519Z,476.86
2022-08-25T15:18:49.274Z,477.03
2022-08-25T15:24:21.128Z,476.86
2022-08-25T15:29:52.998Z,477.21
2022-08-25T15:35:27.729Z,477.03
2022-08-25T15:40:56.453Z,477.21
2022-08-25T15:46:28.395Z,477.38
2022-08-25T15:51:59.752Z,477.99
2022-08-25T15:57:31.587Z,478.17
2022-08-25T16:08:35.453Z,479.04
2022-08-25T16:14:07.063Z,479.04
2022-08-25T16:19:39.319Z,479.56
2022-08-25T16:25:10.731Z,480.26
2022-08-25T16:30:42.497Z,480.43
2022-08-25T16:36:14.237Z,480.78
2022-08-25T16:41:46.007Z,480.78
2022-08-25T16:47:20.328Z,480.96
2022-08-25T16:52:48.972Z,481.13
2022-08-25T16:58:20.343Z,480.96
2022-08-25T17:03:52.327Z,480.96
2022-08-25T17:14:55.776Z,480.61
2022-08-25T17:20:27.957Z,480.26
2022-08-25T17:25:59.282Z,480.61
2022-08-25T17:31:30.831Z,480.43
2022-08-25T17:37:02.226Z,480.43
2022-08-25T17:42:36.369Z,480.26
2022-08-25T17:48:08.363Z,480.43
2022-08-25T17:53:39.803Z,480.08
2022-08-25T17:59:11.098Z,479.56
2022-08-25T18:04:43.073Z,479.74
2022-08-25T18:10:15.018Z,479.21
2022-08-25T18:15:46.892Z,479.21
2022-08-25T18:26:50.179Z,478.86
2022-08-25T18:32:22.125Z,478.86
2022-08-25T18:37:53.659Z,478.69
2022-08-25T18:43:25.452Z,477.99
2022-08-25T18:48:57.244Z,477.73
2022-08-25T18:54:28.951Z,477.38
2022-08-25T19:00:00.757Z,477.38
2022-08-25T19:05:32.014Z,477.38
2022-08-25T19:11:03.331Z,477.21
2022-08-25T19:16:35.183Z,477.21
2022-08-25T19:22:13.424Z,477.38
2022-08-25T19:27:38.464Z,477.38
2022-08-25T19:33:11.703Z,477.38
2022-08-25T19:38:41.968Z,477.38
2022-08-25T19:44:13.663Z,477.21
2022-08-25T19:49:45.562Z,477.03
2022-08-25T19:55:17.650Z,476.86
2022-08-25T20:00:51.282Z,476.68
2022-08-25T20:06:21.350Z,476.51
2022-08-25T20:11:55.023Z,476.51
2022-08-25T20:17:28.646Z,476.33
2022-08-25T20:22:58.889Z,476.33
2022-08-25T20:28:30.637Z,475.99
2022-08-25T20:34:03.074Z,475.99
2022-08-25T20:45:08.293Z,475.64
2022-08-25T20:50:40.166Z,475.64
2022-08-25T20:56:11.684Z,475.46
2022-08-25T21:01:43.563Z,475.29
2022-08-25T21:12:47.323Z,475.64
2022-08-25T21:23:50.878Z,475.99
2022-08-25T21:29:22.578Z,475.81
2022-08-25T21:34:54.359Z,475.46
2022-08-25T21:40:26.258Z,475.46
2022-08-25T21:45:57.675Z,475.81
2022-08-25T21:51:28.998Z,475.64
2022-08-25T22:10:24.992Z,475.99
2022-08-25T22:15:56.460Z,475.99
2022-08-25T22:21:27.683Z,476.33
2022-08-25T22:26:59.508Z,476.33
2022-08-25T22:32:30.980Z,476.51
2022-08-25T22:38:02.738Z,476.86
2022-08-25T22:43:34.875Z,476.68
2022-08-25T22:49:06.369Z,477.38
2022-08-25T22:54:38.455Z,477.21
2022-08-25T23:00:10.142Z,477.38
2022-08-25T23:05:42.118Z,477.38
2022-08-25T23:11:13.839Z,477.56
2022-08-25T23:16:45.754Z,477.56
2022-08-25T23:22:17.158Z,477.73
2022-08-25T23:27:48.805Z,478.17
2022-08-25T23:33:20.348Z,478.34
2022-08-25T23:38:52.370Z,478.69
2022-08-25T23:44:24.474Z,478.86
2022-08-25T23:49:55.955Z,479.39
2022-08-25T23:55:33.038Z,479.56
